createdAt,value
2019-05-01T00:00:16.293Z,90.42
2019-05-01T00:01:12.962Z,88.62
2019-05-01T00:02:12.875Z,88.53
2019-05-01T00:03:12.822Z,89.71
2019-05-01T00:04:12.797Z,90.47
2019-05-01T00:05:12.710Z,89.33
2019-05-01T00:06:12.659Z,87.95
2019-05-01T00:07:12.602Z,87.86
2019-05-01T00:08:12.548Z,88.71
2019-05-01T00:09:12.538Z,89.86
2019-05-01T00:10:12.439Z,87.95
2019-05-01T00:11:12.384Z,87.29
2019-05-01T00:12:12.335Z,88.34
2019-05-01T00:13:12.278Z,86.82
2019-05-01T00:14:12.355Z,85.86
2019-05-01T00:15:12.170Z,84.34
2019-05-01T00:16:12.117Z,85.86
2019-05-01T00:17:12.060Z,86.91
2019-05-01T00:18:12.006Z,84.06
2019-05-01T00:19:11.982Z,80.64
2019-05-01T00:20:11.934Z,81.02
2019-05-01T00:21:11.848Z,81.68
2019-05-01T00:22:11.826Z,82.07
2019-05-01T00:23:11.736Z,81.97
2019-05-01T00:24:11.686Z,81.78
2019-05-01T00:25:11.669Z,82.92
2019-05-01T00:26:11.574Z,84.34
2019-05-01T00:27:11.517Z,82.82
2019-05-01T00:28:11.467Z,85.30
2019-05-01T00:29:11.413Z,86.43
2019-05-01T00:30:11.400Z,87.10
2019-05-01T00:31:11.302Z,87.01
2019-05-01T00:32:11.247Z,85.58
2019-05-01T00:33:11.194Z,86.72
2019-05-01T00:34:11.139Z,86.72
2019-05-01T00:35:11.207Z,87.29
2019-05-01T00:36:11.030Z,86.72
2019-05-01T00:37:10.980Z,84.63
2019-05-01T00:38:10.922Z,84.91
2019-05-01T00:39:10.869Z,83.11
2019-05-01T00:40:10.858Z,84.82
2019-05-01T00:41:10.760Z,86.15
2019-05-01T00:42:10.712Z,84.16
2019-05-01T00:43:10.657Z,83.20
2019-05-01T00:44:10.604Z,84.06
2019-05-01T00:45:10.578Z,82.54
2019-05-01T00:46:10.493Z,81.02
2019-05-01T00:47:10.464Z,80.83
2019-05-01T00:48:10.378Z,79.88
2019-05-01T00:49:10.331Z,80.45
2019-05-01T00:50:10.274Z,81.30
2019-05-01T00:51:10.216Z,81.30
2019-05-01T00:52:10.201Z,80.74
2019-05-01T00:53:10.111Z,81.78
2019-05-01T00:54:10.056Z,83.20
2019-05-01T00:55:09.998Z,83.01
2019-05-01T00:56:09.946Z,84.44
2019-05-01T00:57:09.923Z,85.30
2019-05-01T00:58:09.837Z,85.39
2019-05-01T00:59:09.793Z,85.68
2019-05-01T01:00:09.730Z,86.53
2019-05-01T01:01:09.708Z,87.10
2019-05-01T01:02:09.652Z,87.67
2019-05-01T01:03:09.568Z,87.76
2019-05-01T01:04:09.515Z,87.86
2019-05-01T01:05:09.456Z,86.34
2019-05-01T01:06:09.402Z,86.53
2019-05-01T01:07:09.388Z,84.63
2019-05-01T01:08:09.295Z,85.77
2019-05-01T01:09:09.277Z,87.86
2019-05-01T01:10:09.188Z,88.43
2019-05-01T01:11:09.130Z,88.43
2019-05-01T01:12:09.075Z,88.43
2019-05-01T01:13:09.027Z,88.90
2019-05-01T01:14:09.009Z,89.28
2019-05-01T01:15:08.914Z,90.23
2019-05-01T01:16:08.858Z,87.67
2019-05-01T01:17:08.805Z,88.90
2019-05-01T01:18:08.753Z,90.80
2019-05-01T01:19:08.731Z,92.23
2019-05-01T01:20:08.645Z,94.70
2019-05-01T01:21:08.591Z,95.55
2019-05-01T01:22:08.533Z,94.51
2019-05-01T01:23:08.513Z,91.47
2019-05-01T01:24:08.425Z,92.51
2019-05-01T01:25:08.372Z,92.23
2019-05-01T01:26:08.353Z,90.80
2019-05-01T01:27:08.262Z,87.10
2019-05-01T01:28:08.211Z,88.24
2019-05-01T01:29:08.153Z,88.24
2019-05-01T01:30:08.100Z,86.53
2019-05-01T01:31:08.081Z,88.05
2019-05-01T01:32:07.993Z,87.86
2019-05-01T01:33:07.936Z,86.82
2019-05-01T01:34:07.879Z,87.86
2019-05-01T01:35:07.827Z,87.76
2019-05-01T01:36:07.806Z,89.09
2019-05-01T01:37:07.720Z,86.15
2019-05-01T01:38:07.665Z,84.34
2019-05-01T01:39:07.608Z,84.16
2019-05-01T01:40:07.586Z,83.20
2019-05-01T01:41:07.500Z,83.97
2019-05-01T01:42:07.445Z,85.86
2019-05-01T01:43:07.389Z,86.43
2019-05-01T01:44:07.335Z,84.82
2019-05-01T01:45:07.316Z,84.63
2019-05-01T01:46:07.266Z,83.11
2019-05-01T01:47:07.209Z,85.30
2019-05-01T01:48:07.117Z,84.91
2019-05-01T01:49:07.062Z,83.01
2019-05-01T01:50:07.010Z,83.01
2019-05-01T01:51:06.958Z,82.26
2019-05-01T01:52:06.930Z,83.68
2019-05-01T01:53:06.847Z,84.21
2019-05-01T01:54:06.793Z,84.63
2019-05-01T01:55:06.766Z,83.83
2019-05-01T01:56:06.682Z,84.78
2019-05-01T01:57:06.661Z,85.49
2019-05-01T01:58:06.575Z,81.21
2019-05-01T01:59:06.529Z,81.12
2019-05-01T02:00:06.463Z,82.40
2019-05-01T02:01:09.660Z,81.97
2019-05-01T02:02:06.383Z,80.83
2019-05-01T02:03:06.325Z,81.87
2019-05-01T02:04:06.244Z,81.21
2019-05-01T02:05:06.192Z,79.55
2019-05-01T02:06:06.138Z,80.69
2019-05-01T02:07:06.125Z,81.36
2019-05-01T02:08:08.759Z,82.40
2019-05-01T02:09:05.974Z,82.12
2019-05-01T02:10:05.948Z,82.59
2019-05-01T02:11:05.863Z,82.50
2019-05-01T02:12:05.845Z,82.40
2019-05-01T02:13:05.754Z,82.88
2019-05-01T02:14:05.735Z,82.69
2019-05-01T02:15:05.645Z,80.13
2019-05-01T02:16:05.612Z,80.60
2019-05-01T02:17:05.571Z,82.69
2019-05-01T02:18:05.511Z,83.07
2019-05-01T02:19:05.456Z,82.88
2019-05-01T02:20:05.370Z,83.73
2019-05-01T02:21:05.316Z,83.16
2019-05-01T02:22:05.262Z,83.26
2019-05-01T02:23:05.249Z,85.01
2019-05-01T02:24:05.154Z,85.44
2019-05-01T02:25:05.099Z,84.40
2019-05-01T02:26:05.042Z,80.69
2019-05-01T02:27:04.986Z,80.79
2019-05-01T02:28:04.976Z,79.94
2019-05-01T02:29:04.879Z,78.61
2019-05-01T02:30:04.824Z,77.37
2019-05-01T02:31:04.771Z,76.32
2019-05-01T02:32:04.724Z,77.66
2019-05-01T02:33:04.694Z,79.94
2019-05-01T02:34:04.648Z,76.04
2019-05-01T02:35:04.558Z,78.42
2019-05-01T02:36:04.495Z,79.27
2019-05-01T02:37:04.445Z,80.88
2019-05-01T02:38:04.387Z,80.32
2019-05-01T02:39:04.386Z,80.51
2019-05-01T02:40:04.275Z,82.21
2019-05-01T02:41:04.220Z,85.82
2019-05-01T02:42:04.202Z,87.43
2019-05-01T02:43:04.111Z,87.15
2019-05-01T02:44:04.092Z,85.35
2019-05-01T02:45:04.002Z,83.64
2019-05-01T02:46:03.949Z,81.17
2019-05-01T02:47:03.934Z,79.46
2019-05-01T02:48:03.838Z,78.51
2019-05-01T02:49:03.782Z,77.37
2019-05-01T02:50:03.760Z,75.38
2019-05-01T02:51:03.709Z,76.61
2019-05-01T02:52:03.623Z,75.00
2019-05-01T02:53:03.564Z,75.85
2019-05-01T02:54:03.526Z,75.00
2019-05-01T02:55:03.489Z,75.38
2019-05-01T02:56:03.399Z,77.09
2019-05-01T02:57:03.347Z,76.99
2019-05-01T02:58:03.291Z,76.71
2019-05-01T02:59:03.234Z,75.28
2019-05-01T03:00:03.207Z,77.18
2019-05-01T03:01:03.124Z,76.61
2019-05-01T03:02:03.070Z,77.37
2019-05-01T03:03:03.024Z,76.57
2019-05-01T03:04:02.962Z,74.39
2019-05-01T03:05:02.955Z,76.48
2019-05-01T03:06:02.857Z,77.43
2019-05-01T03:07:02.797Z,76.39
2019-05-01T03:08:02.772Z,76.67
2019-05-01T03:09:02.685Z,74.87
2019-05-01T03:10:02.633Z,74.11
2019-05-01T03:11:02.575Z,74.20
2019-05-01T03:12:02.523Z,73.82
2019-05-01T03:13:02.503Z,74.58
2019-05-01T03:14:02.412Z,73.82
2019-05-01T03:15:02.354Z,73.44
2019-05-01T03:16:02.301Z,70.59
2019-05-01T03:17:02.246Z,72.21
2019-05-01T03:18:02.229Z,71.64
2019-05-01T03:19:02.135Z,71.73
2019-05-01T03:20:02.082Z,69.84
2019-05-01T03:21:02.022Z,71.17
2019-05-01T03:22:01.971Z,71.11
2019-05-01T03:23:01.945Z,71.30
2019-05-01T03:24:01.862Z,72.63
2019-05-01T03:25:01.807Z,75.72
2019-05-01T03:26:01.748Z,79.33
2019-05-01T03:27:01.727Z,83.22
2019-05-01T03:28:01.676Z,84.17
2019-05-01T03:29:01.587Z,83.31
2019-05-01T03:30:01.530Z,82.74
2019-05-01T03:31:01.506Z,83.12
2019-05-01T03:32:16.721Z,82.93
2019-05-01T03:33:01.370Z,80.84
2019-05-01T03:34:01.360Z,80.37
2019-05-01T03:35:01.251Z,81.23
2019-05-01T03:36:01.230Z,82.55
2019-05-01T03:37:01.143Z,82.17
2019-05-01T03:38:01.084Z,80.18
2019-05-01T03:39:01.063Z,81.79
2019-05-01T03:40:00.979Z,83.50
2019-05-01T03:41:00.924Z,84.74
2019-05-01T03:42:00.900Z,84.64
2019-05-01T03:43:00.810Z,81.41
2019-05-01T03:44:00.790Z,81.51
2019-05-01T03:45:00.706Z,79.99
2019-05-01T03:46:00.644Z,81.32
2019-05-01T03:47:00.591Z,80.56
2019-05-01T03:48:00.536Z,80.84
2019-05-01T03:49:00.508Z,80.56
2019-05-01T03:50:00.422Z,80.46
2019-05-01T03:51:00.367Z,80.18
2019-05-01T03:52:00.312Z,79.84
2019-05-01T03:53:00.264Z,80.32
2019-05-01T03:54:00.268Z,79.65
2019-05-01T03:55:00.158Z,79.61
2019-05-01T03:56:00.089Z,81.88
2019-05-01T03:57:00.034Z,83.03
2019-05-01T03:57:59.982Z,85.49
2019-05-01T03:58:59.954Z,86.25
2019-05-01T03:59:59.884Z,86.16
2019-05-01T04:00:59.821Z,86.44
2019-05-01T04:01:59.759Z,84.26
2019-05-01T04:02:59.738Z,84.07
2019-05-01T04:03:59.648Z,87.01
2019-05-01T04:04:59.593Z,88.34
2019-05-01T04:05:59.539Z,89.00
2019-05-01T04:06:59.514Z,88.62
2019-05-01T04:07:59.436Z,87.49
2019-05-01T04:08:59.371Z,86.82
2019-05-01T04:09:59.318Z,89.20
2019-05-01T04:10:59.307Z,89.95
2019-05-01T04:11:59.255Z,90.43
2019-05-01T04:12:59.162Z,90.24
2019-05-01T04:13:59.095Z,90.52
2019-05-01T04:14:59.038Z,89.29
2019-05-01T04:15:58.983Z,88.53
2019-05-01T04:16:58.968Z,88.72
2019-05-01T04:17:58.875Z,87.30
2019-05-01T04:18:58.820Z,87.01
2019-05-01T04:19:58.766Z,85.78
2019-05-01T04:20:58.716Z,84.36
2019-05-01T04:21:58.708Z,87.30
2019-05-01T04:22:58.607Z,89.29
2019-05-01T04:23:58.543Z,87.77
2019-05-01T04:24:58.492Z,89.20
2019-05-01T04:25:58.437Z,88.43
2019-05-01T04:26:58.413Z,88.06
2019-05-01T04:27:59.022Z,86.16
2019-05-01T04:28:58.266Z,85.40
2019-05-01T04:29:58.215Z,85.02
2019-05-01T04:30:58.157Z,82.93
2019-05-01T04:31:58.099Z,81.60
2019-05-01T04:32:58.092Z,79.99
2019-05-01T04:33:57.992Z,78.85
2019-05-01T04:34:57.935Z,77.52
2019-05-01T04:35:57.886Z,74.87
2019-05-01T04:36:57.827Z,75.91
2019-05-01T04:37:57.811Z,76.29
2019-05-01T04:38:57.708Z,74.30
2019-05-01T04:39:57.656Z,73.54
2019-05-01T04:40:57.606Z,73.44
2019-05-01T04:41:57.544Z,73.92
2019-05-01T04:42:57.521Z,73.25
2019-05-01T04:43:57.433Z,73.35
2019-05-01T04:44:57.378Z,74.20
2019-05-01T04:45:57.325Z,74.39
2019-05-01T04:46:57.314Z,74.20
2019-05-01T04:47:57.214Z,75.05
2019-05-01T04:48:57.160Z,75.72
2019-05-01T04:49:57.141Z,78.47
2019-05-01T04:50:57.043Z,80.65
2019-05-01T04:51:56.988Z,81.04
2019-05-01T04:52:56.933Z,80.27
2019-05-01T04:53:56.879Z,80.37
2019-05-01T04:54:56.862Z,82.93
2019-05-01T04:55:56.765Z,84.92
2019-05-01T04:56:56.712Z,86.07
2019-05-01T04:57:56.655Z,85.97
2019-05-01T04:58:56.598Z,85.78
2019-05-01T04:59:56.588Z,86.35
2019-05-01T05:00:56.490Z,86.16
2019-05-01T05:01:57.224Z,85.11
2019-05-01T05:03:04.416Z,85.30
2019-05-01T05:03:56.323Z,83.12
2019-05-01T05:04:56.308Z,80.65
2019-05-01T05:05:56.212Z,78.38
2019-05-01T05:06:56.155Z,76.14
2019-05-01T05:07:56.104Z,75.24
2019-05-01T05:08:56.047Z,73.96
2019-05-01T05:09:56.014Z,72.91
2019-05-01T05:10:55.932Z,73.76
2019-05-01T05:11:55.880Z,73.19
2019-05-01T05:12:55.854Z,72.25
2019-05-01T05:13:55.807Z,71.96
2019-05-01T05:14:55.713Z,72.34
2019-05-01T05:15:55.658Z,74.33
2019-05-01T05:16:55.602Z,74.52
2019-05-01T05:17:55.580Z,73.86
2019-05-01T05:18:55.493Z,74.15
2019-05-01T05:19:55.440Z,74.71
2019-05-01T05:20:55.384Z,75.28
2019-05-01T05:21:55.330Z,74.43
2019-05-01T05:22:55.303Z,75.38
2019-05-01T05:23:55.223Z,76.71
2019-05-01T05:24:55.190Z,76.90
2019-05-01T05:25:55.106Z,77.28
2019-05-01T05:26:55.057Z,77.03
2019-05-01T05:27:55.038Z,78.23
2019-05-01T05:28:54.940Z,78.17
2019-05-01T05:29:54.885Z,76.93
2019-05-01T05:30:54.830Z,77.31
2019-05-01T05:31:54.778Z,78.27
2019-05-01T05:32:54.769Z,79.22
2019-05-01T05:33:54.664Z,81.12
2019-05-01T05:34:54.608Z,82.35
2019-05-01T05:35:54.557Z,84.25
2019-05-01T05:36:54.500Z,83.87
2019-05-01T05:37:54.488Z,83.11
2019-05-01T05:38:54.387Z,83.20
2019-05-01T05:39:54.334Z,83.20
2019-05-01T05:40:54.279Z,83.01
2019-05-01T05:41:54.228Z,83.30
2019-05-01T05:42:54.202Z,83.87
2019-05-01T05:43:54.114Z,83.78
2019-05-01T05:44:54.059Z,82.82
2019-05-01T05:45:54.008Z,83.78
2019-05-01T05:46:53.987Z,83.11
2019-05-01T05:47:53.896Z,83.39
2019-05-01T05:48:53.844Z,83.30
2019-05-01T05:49:53.789Z,81.59
2019-05-01T05:50:53.761Z,82.07
2019-05-01T05:51:53.674Z,81.68
2019-05-01T05:52:53.660Z,82.26
2019-05-01T05:53:53.567Z,84.01
2019-05-01T05:54:53.513Z,83.25
2019-05-01T05:55:53.462Z,82.87
2019-05-01T05:56:53.404Z,82.39
2019-05-01T05:57:53.377Z,83.06
2019-05-01T05:58:53.324Z,82.58
2019-05-01T05:59:53.249Z,83.82
2019-05-01T06:00:53.184Z,83.06
2019-05-01T06:01:53.130Z,83.06
2019-05-01T06:02:53.075Z,82.87
2019-05-01T06:03:53.059Z,83.91
2019-05-01T06:04:52.966Z,84.67
2019-05-01T06:05:52.923Z,84.48
2019-05-01T06:06:52.856Z,85.15
2019-05-01T06:07:53.703Z,84.10
2019-05-01T06:08:52.808Z,84.48
2019-05-01T06:09:52.765Z,85.24
2019-05-01T06:10:53.578Z,84.52
2019-05-01T06:11:52.616Z,86.61
2019-05-01T06:12:52.527Z,86.33
2019-05-01T06:13:56.477Z,85.76
2019-05-01T06:14:52.428Z,86.71
2019-05-01T06:15:52.393Z,85.47
2019-05-01T06:16:53.999Z,85.47
2019-05-01T06:17:52.268Z,86.71
2019-05-01T06:18:52.243Z,87.66
2019-05-01T06:19:52.179Z,88.61
2019-05-01T06:20:52.156Z,88.23
2019-05-01T06:21:52.046Z,87.95
2019-05-01T06:22:51.989Z,87.85
2019-05-01T06:23:52.822Z,88.71
2019-05-01T06:24:51.878Z,88.52
2019-05-01T06:25:54.088Z,89.09
2019-05-01T06:26:51.769Z,89.28
2019-05-01T06:27:51.719Z,89.18
2019-05-01T06:28:55.891Z,89.18
2019-05-01T06:29:51.638Z,89.00
2019-05-01T06:30:51.589Z,89.18
2019-05-01T06:31:53.973Z,89.47
2019-05-01T06:32:51.448Z,89.00
2019-05-01T06:33:53.115Z,88.56
2019-05-01T06:34:51.349Z,88.56
2019-05-01T06:35:51.315Z,88.66
2019-05-01T06:36:51.422Z,88.66
2019-05-01T06:37:51.176Z,88.85
2019-05-01T06:38:51.134Z,88.85
2019-05-01T06:39:51.071Z,88.85
2019-05-01T06:40:53.099Z,87.04
2019-05-01T06:41:51.006Z,87.71
2019-05-01T06:42:51.181Z,86.94
2019-05-01T06:43:50.854Z,87.99
2019-05-01T06:44:50.799Z,87.52
2019-05-01T06:45:51.614Z,87.71
2019-05-01T06:46:50.726Z,88.56
2019-05-01T06:47:52.482Z,88.75
2019-05-01T06:48:53.415Z,88.66
2019-05-01T06:49:50.533Z,88.46
2019-05-01T06:50:50.487Z,88.46
2019-05-01T06:51:53.080Z,87.52
2019-05-01T06:52:50.403Z,89.47
2019-05-01T06:53:50.319Z,88.99
2019-05-01T06:54:52.094Z,89.84
2019-05-01T06:55:51.558Z,90.42
2019-05-01T06:56:50.196Z,89.75
2019-05-01T06:57:50.110Z,90.32
2019-05-01T06:58:51.083Z,91.08
2019-05-01T06:59:49.999Z,91.08
2019-05-01T07:00:49.944Z,91.51
2019-05-01T07:01:53.364Z,90.46
2019-05-01T07:02:49.835Z,90.46
2019-05-01T07:04:02.858Z,91.41
2019-05-01T07:04:49.731Z,92.08
2019-05-01T07:05:54.311Z,93.79
2019-05-01T07:06:49.671Z,93.89
2019-05-01T07:07:53.200Z,94.17
2019-05-01T07:08:49.520Z,93.98
2019-05-01T07:09:51.003Z,95.12
2019-05-01T07:10:49.415Z,96.60
2019-05-01T07:11:52.613Z,97.56
2019-05-01T07:12:49.308Z,96.60
2019-05-01T07:13:49.284Z,97.36
2019-05-01T07:14:50.867Z,96.03
2019-05-01T07:15:49.149Z,95.84
2019-05-01T07:16:49.097Z,96.89
2019-05-01T07:17:49.135Z,95.84
2019-05-01T07:18:49.025Z,96.60
2019-05-01T07:19:48.993Z,97.46
2019-05-01T07:20:51.606Z,97.56
2019-05-01T07:21:48.835Z,98.36
2019-05-01T07:22:48.787Z,98.65
2019-05-01T07:23:52.185Z,98.27
2019-05-01T07:24:49.134Z,98.27
2019-05-01T07:25:48.625Z,98.85
2019-05-01T07:26:49.234Z,98.65
2019-05-01T07:27:48.517Z,98.36
2019-05-01T07:28:48.501Z,99.51
2019-05-01T07:29:48.413Z,98.75
2019-05-01T07:30:49.820Z,99.70
2019-05-01T07:31:48.308Z,99.51
2019-05-01T07:32:48.264Z,99.60
2019-05-01T07:33:51.237Z,99.22
2019-05-01T07:34:48.981Z,98.36
2019-05-01T07:35:48.133Z,99.70
2019-05-01T07:36:50.120Z,99.70
2019-05-01T07:37:47.995Z,99.99
2019-05-01T07:38:47.978Z,99.89
2019-05-01T07:39:49.959Z,99.99
2019-05-01T07:40:47.841Z,99.99
2019-05-01T07:41:47.788Z,99.99
2019-05-01T07:42:48.312Z,99.99
2019-05-01T07:43:47.683Z,99.99
2019-05-01T07:44:47.668Z,99.99
2019-05-01T07:45:47.622Z,99.99
2019-05-01T07:46:48.995Z,99.99
2019-05-01T07:47:47.478Z,99.99
2019-05-01T07:48:47.427Z,99.99
2019-05-01T07:49:47.836Z,99.99
2019-05-01T07:50:47.357Z,99.99
2019-05-01T07:51:47.275Z,99.99
2019-05-01T07:52:47.799Z,99.99
2019-05-01T07:53:47.171Z,99.99
2019-05-01T07:54:47.376Z,99.99
2019-05-01T07:55:48.550Z,99.99
2019-05-01T07:56:47.038Z,99.99
2019-05-01T07:57:46.996Z,99.99
2019-05-01T07:58:47.595Z,99.99
2019-05-01T07:59:46.861Z,99.99
2019-05-01T08:00:46.844Z,99.99
2019-05-01T08:01:49.936Z,99.99
2019-05-01T08:02:46.713Z,99.99
2019-05-01T08:03:46.699Z,99.99
2019-05-01T08:04:46.614Z,99.99
2019-05-01T08:05:46.838Z,99.99
2019-05-01T08:06:46.507Z,99.99
2019-05-01T08:07:46.456Z,99.99
2019-05-01T08:08:46.446Z,99.99
2019-05-01T08:09:50.296Z,99.99
2019-05-01T08:10:46.304Z,99.99
2019-05-01T08:11:46.256Z,99.99
2019-05-01T08:12:46.206Z,99.99
2019-05-01T08:13:46.190Z,99.99
2019-05-01T08:14:47.781Z,99.99
2019-05-01T08:15:46.057Z,99.99
2019-05-01T08:16:46.006Z,99.99
2019-05-01T08:17:48.870Z,99.99
2019-05-01T08:18:45.907Z,99.99
2019-05-01T08:19:45.860Z,99.99
2019-05-01T08:20:50.044Z,99.99
2019-05-01T08:21:45.761Z,99.99
2019-05-01T08:22:45.710Z,99.99
2019-05-01T08:23:47.171Z,99.99
2019-05-01T08:24:45.611Z,99.99
2019-05-01T08:25:45.595Z,99.99
2019-05-01T08:26:45.999Z,99.99
2019-05-01T08:27:45.467Z,99.99
2019-05-01T08:28:45.447Z,99.34
2019-05-01T08:29:45.370Z,98.77
2019-05-01T08:30:47.958Z,93.97
2019-05-01T08:31:45.310Z,95.94
2019-05-01T08:32:45.220Z,95.98
2019-05-01T08:33:49.880Z,96.08
2019-05-01T08:34:49.080Z,92.43
2019-05-01T08:35:45.079Z,93.92
2019-05-01T08:36:47.233Z,92.77
2019-05-01T08:37:44.989Z,89.83
2019-05-01T08:38:44.934Z,84.74
2019-05-01T08:39:45.942Z,83.78
2019-05-01T08:40:44.842Z,82.63
2019-05-01T08:41:44.823Z,85.71
2019-05-01T08:42:44.746Z,85.71
2019-05-01T08:43:48.784Z,85.17
2019-05-01T08:44:44.652Z,84.30
2019-05-01T08:45:44.637Z,82.76
2019-05-01T08:46:46.942Z,82.90
2019-05-01T08:47:44.514Z,82.04
2019-05-01T08:48:44.468Z,82.65
2019-05-01T08:49:49.482Z,82.37
2019-05-01T08:50:44.373Z,79.58
2019-05-01T08:51:44.327Z,77.31
2019-05-01T08:52:47.510Z,76.92
2019-05-01T08:53:44.232Z,75.57
2019-05-01T08:54:44.220Z,76.96
2019-05-01T08:55:45.094Z,71.47
2019-05-01T08:56:44.097Z,69.73
2019-05-01T08:57:44.050Z,69.79
2019-05-01T08:58:44.815Z,70.56
2019-05-01T08:59:43.959Z,72.43
2019-05-01T09:00:43.948Z,72.91
2019-05-01T09:01:45.848Z,72.24
2019-05-01T09:02:43.847Z,71.76
2019-05-01T09:03:43.777Z,71.60
2019-05-01T09:04:43.736Z,69.57
2019-05-01T09:05:43.737Z,72.33
2019-05-01T09:06:45.110Z,71.50
2019-05-01T09:07:43.627Z,66.36
2019-05-01T09:08:43.556Z,68.10
2019-05-01T09:09:45.493Z,70.35
2019-05-01T09:10:43.512Z,72.27
2019-05-01T09:11:43.423Z,72.21
2019-05-01T09:12:46.937Z,72.41
2019-05-01T09:13:43.337Z,70.61
2019-05-01T09:14:43.292Z,69.64
2019-05-01T09:15:43.755Z,69.10
2019-05-01T09:16:43.199Z,68.62
2019-05-01T09:17:43.160Z,67.49
2019-05-01T09:18:43.115Z,67.49
2019-05-01T09:19:43.069Z,64.59
2019-05-01T09:20:43.059Z,63.63
2019-05-01T09:21:42.983Z,62.37
2019-05-01T09:22:42.939Z,61.60
2019-05-01T09:23:46.273Z,61.02
2019-05-01T09:24:42.885Z,62.57
2019-05-01T09:25:42.812Z,59.77
2019-05-01T09:26:45.249Z,59.35
2019-05-01T09:27:42.724Z,63.24
2019-05-01T09:28:42.680Z,63.18
2019-05-01T09:29:46.794Z,61.83
2019-05-01T09:30:42.631Z,62.02
2019-05-01T09:31:42.614Z,62.44
2019-05-01T09:32:45.883Z,60.99
2019-05-01T09:33:42.501Z,59.25
2019-05-01T09:34:42.425Z,59.66
2019-05-01T09:35:45.441Z,59.56
2019-05-01T09:36:42.348Z,60.72
2019-05-01T09:37:42.301Z,61.50
2019-05-01T09:38:42.293Z,61.02
2019-05-01T09:39:42.215Z,59.86
2019-05-01T09:40:42.174Z,59.95
2019-05-01T09:41:43.080Z,59.47
2019-05-01T09:42:42.088Z,59.56
2019-05-01T09:43:42.047Z,60.24
2019-05-01T09:44:42.034Z,58.60
2019-05-01T09:45:41.998Z,59.56
2019-05-01T09:46:41.929Z,59.69
2019-05-01T09:47:41.879Z,61.15
2019-05-01T09:48:41.871Z,56.57
2019-05-01T09:49:41.797Z,54.80
2019-05-01T09:50:41.756Z,58.28
2019-05-01T09:51:42.516Z,60.21
2019-05-01T09:52:41.724Z,58.18
2019-05-01T09:53:41.632Z,58.95
2019-05-01T09:54:43.035Z,57.60
2019-05-01T09:55:41.550Z,57.12
2019-05-01T09:56:41.510Z,58.95
2019-05-01T09:57:42.824Z,59.63
2019-05-01T09:58:41.435Z,60.05
2019-05-01T09:59:41.384Z,60.53
2019-05-01T10:00:41.344Z,60.63
2019-05-01T10:01:41.299Z,61.79
2019-05-01T10:02:42.143Z,61.69
2019-05-01T10:03:41.226Z,58.12
2019-05-01T10:04:41.219Z,59.38
2019-05-01T10:05:42.992Z,58.98
2019-05-01T10:06:41.093Z,58.89
2019-05-01T10:07:41.085Z,59.40
2019-05-01T10:08:41.934Z,57.69
2019-05-01T10:09:40.970Z,57.50
2019-05-01T10:10:40.943Z,56.72
2019-05-01T10:11:42.017Z,57.53
2019-05-01T10:12:41.914Z,58.27
2019-05-01T10:13:40.810Z,57.69
2019-05-01T10:14:40.765Z,57.14
2019-05-01T10:15:40.735Z,56.36
2019-05-01T10:16:40.717Z,55.32
2019-05-01T10:17:40.649Z,55.04
2019-05-01T10:18:40.602Z,56.20
2019-05-01T10:19:40.563Z,54.71
2019-05-01T10:20:40.557Z,55.68
2019-05-01T10:21:40.486Z,56.36
2019-05-01T10:22:40.443Z,56.26
2019-05-01T10:23:40.405Z,56.36
2019-05-01T10:24:40.359Z,58.33
2019-05-01T10:25:42.802Z,57.71
2019-05-01T10:26:40.279Z,57.55
2019-05-01T10:27:40.238Z,54.81
2019-05-01T10:28:40.199Z,55.00
2019-05-01T10:29:40.163Z,53.23
2019-05-01T10:30:40.149Z,55.27
2019-05-01T10:31:42.895Z,56.16
2019-05-01T10:32:40.037Z,55.20
2019-05-01T10:33:40.419Z,55.81
2019-05-01T10:34:42.970Z,55.32
2019-05-01T10:35:42.836Z,54.48
2019-05-01T10:36:40.906Z,51.96
2019-05-01T10:37:39.907Z,51.93
2019-05-01T10:38:44.381Z,50.29
2019-05-01T10:39:39.811Z,52.10
2019-05-01T10:40:39.723Z,53.36
2019-05-01T10:41:41.177Z,53.75
2019-05-01T10:42:41.111Z,52.87
2019-05-01T10:43:39.611Z,51.62
2019-05-01T10:44:39.563Z,53.07
2019-05-01T10:45:39.579Z,53.26
2019-05-01T10:46:39.542Z,50.65
2019-05-01T10:47:39.484Z,49.37
2019-05-01T10:48:39.402Z,52.58
2019-05-01T10:49:39.365Z,55.30
2019-05-01T10:50:39.322Z,55.71
2019-05-01T10:51:39.280Z,55.32
2019-05-01T10:52:39.270Z,50.87
2019-05-01T10:53:39.265Z,52.12
2019-05-01T10:54:39.161Z,51.93
2019-05-01T10:55:39.123Z,53.26
2019-05-01T10:56:39.112Z,52.42
2019-05-01T10:57:40.207Z,53.51
2019-05-01T10:58:39.001Z,52.93
2019-05-01T10:59:38.963Z,51.31
2019-05-01T11:00:38.931Z,51.23
2019-05-01T11:01:38.932Z,49.29
2019-05-01T11:02:38.850Z,49.02
2019-05-01T11:03:38.837Z,48.44
2019-05-01T11:04:38.768Z,47.69
2019-05-01T11:05:38.731Z,46.64
2019-05-01T11:06:38.688Z,48.75
2019-05-01T11:07:38.654Z,48.10
2019-05-01T11:08:38.648Z,48.20
2019-05-01T11:09:38.579Z,46.15
2019-05-01T11:10:38.572Z,46.18
2019-05-01T11:11:38.493Z,46.77
2019-05-01T11:12:38.453Z,44.12
2019-05-01T11:13:38.419Z,45.87
2019-05-01T11:14:38.389Z,47.34
2019-05-01T11:15:38.385Z,46.15
2019-05-01T11:16:38.300Z,44.19
2019-05-01T11:17:38.258Z,45.04
2019-05-01T11:18:38.225Z,45.02
2019-05-01T11:19:38.181Z,45.70
2019-05-01T11:20:38.175Z,44.64
2019-05-01T11:21:38.156Z,45.82
2019-05-01T11:22:38.074Z,45.62
2019-05-01T11:23:38.058Z,45.55
2019-05-01T11:24:37.991Z,44.19
2019-05-01T11:25:37.955Z,44.60
2019-05-01T11:26:37.911Z,45.67
2019-05-01T11:27:37.917Z,45.57
2019-05-01T11:28:37.839Z,45.69
2019-05-01T11:29:37.797Z,46.77
2019-05-01T11:30:37.762Z,45.87
2019-05-01T11:31:37.721Z,46.74
2019-05-01T11:32:37.712Z,46.15
2019-05-01T11:33:37.680Z,46.35
2019-05-01T11:34:37.607Z,45.87
2019-05-01T11:35:37.568Z,45.45
2019-05-01T11:36:37.528Z,45.70
2019-05-01T11:37:37.489Z,44.13
2019-05-01T11:38:37.486Z,45.58
2019-05-01T11:39:40.938Z,44.30
2019-05-01T11:40:37.377Z,44.18
2019-05-01T11:41:37.338Z,43.65
2019-05-01T11:42:37.304Z,45.13
2019-05-01T11:43:37.284Z,45.51
2019-05-01T11:44:37.259Z,45.61
2019-05-01T11:45:37.238Z,43.96
2019-05-01T11:46:37.146Z,45.40
2019-05-01T11:47:37.105Z,47.52
2019-05-01T11:48:37.110Z,44.48
2019-05-01T11:49:37.078Z,45.81
2019-05-01T11:50:37.044Z,45.42
2019-05-01T11:51:36.948Z,48.93
2019-05-01T11:52:36.911Z,49.22
2019-05-01T11:53:36.906Z,48.27
2019-05-01T11:54:36.866Z,47.79
2019-05-01T11:55:36.793Z,47.91
2019-05-01T11:56:36.786Z,46.15
2019-05-01T11:57:36.749Z,47.48
2019-05-01T11:58:36.674Z,46.70
2019-05-01T11:59:36.637Z,46.80
2019-05-01T12:00:36.629Z,47.86
2019-05-01T12:01:36.606Z,47.74
2019-05-01T12:02:36.522Z,46.08
2019-05-01T12:03:36.478Z,47.50
2019-05-01T12:04:36.440Z,48.57
2019-05-01T12:05:36.464Z,52.04
2019-05-01T12:06:36.393Z,50.69
2019-05-01T12:07:36.319Z,49.70
2019-05-01T12:08:36.285Z,49.41
2019-05-01T12:09:36.239Z,49.70
2019-05-01T12:10:36.294Z,50.09
2019-05-01T12:11:36.201Z,50.45
2019-05-01T12:12:36.120Z,50.54
2019-05-01T12:13:43.527Z,51.32
2019-05-01T12:14:36.039Z,51.51
2019-05-01T12:15:36.040Z,51.48
2019-05-01T12:16:35.986Z,52.35
2019-05-01T12:17:38.819Z,54.18
2019-05-01T12:18:35.874Z,54.66
2019-05-01T12:19:35.833Z,55.73
2019-05-01T12:20:35.792Z,56.37
2019-05-01T12:21:35.882Z,56.95
2019-05-01T12:22:35.762Z,57.53
2019-05-01T12:23:35.668Z,57.69
2019-05-01T12:24:35.626Z,58.56
2019-05-01T12:25:35.587Z,58.37
2019-05-01T12:26:35.586Z,58.75
2019-05-01T12:27:35.502Z,59.81
2019-05-01T12:28:35.460Z,60.68
2019-05-01T12:29:35.420Z,61.07
2019-05-01T12:30:35.375Z,61.65
2019-05-01T12:31:35.372Z,62.41
2019-05-01T12:32:35.296Z,61.55
2019-05-01T12:33:35.251Z,61.80
2019-05-01T12:34:35.243Z,61.74
2019-05-01T12:35:35.168Z,60.75
2019-05-01T12:36:36.334Z,60.94
2019-05-01T12:37:35.123Z,60.65
2019-05-01T12:38:35.042Z,60.07
2019-05-01T12:39:34.998Z,60.84
2019-05-01T12:40:34.955Z,61.61
2019-05-01T12:41:34.913Z,61.42
2019-05-01T12:42:34.914Z,59.78
2019-05-01T12:43:34.831Z,59.47
2019-05-01T12:44:34.788Z,61.49
2019-05-01T12:45:34.742Z,62.29
2019-05-01T12:46:34.704Z,61.04
2019-05-01T12:47:34.693Z,60.68
2019-05-01T12:48:34.615Z,61.45
2019-05-01T12:49:34.571Z,61.83
2019-05-01T12:50:34.568Z,61.77
2019-05-01T12:51:34.486Z,61.48